createdAt,value
2019-06-01T00:01:13.858Z,88.70
2019-06-01T00:03:46.749Z,88.80
2019-06-01T00:06:18.177Z,88.90
2019-06-01T00:08:49.542Z,88.80
2019-06-01T00:11:21.055Z,89.00
2019-06-01T00:13:52.422Z,89.00
2019-06-01T00:16:23.739Z,89.10
2019-06-01T00:18:55.048Z,89.00
2019-06-01T00:21:26.447Z,88.40
2019-06-01T00:23:57.748Z,88.90
2019-06-01T00:26:29.077Z,88.90
2019-06-01T00:29:00.297Z,88.90
2019-06-01T00:31:31.763Z,88.80
2019-06-01T00:34:03.087Z,88.80
2019-06-01T00:36:34.718Z,88.70
2019-06-01T00:39:07.480Z,88.80
2019-06-01T00:41:38.896Z,88.80
2019-06-01T00:44:10.318Z,88.70
2019-06-01T00:46:42.528Z,88.70
2019-06-01T00:49:14.059Z,88.80
2019-06-01T00:51:46.917Z,88.70
2019-06-01T00:54:18.490Z,88.60
2019-06-01T00:56:49.844Z,88.50
2019-06-01T00:59:21.136Z,88.60
2019-06-01T01:01:52.472Z,88.50
2019-06-01T01:04:23.744Z,88.60
2019-06-01T01:06:55.080Z,88.50
2019-06-01T01:09:26.631Z,88.50
2019-06-01T01:11:57.897Z,88.50
2019-06-01T01:14:29.196Z,88.50
2019-06-01T01:17:00.700Z,88.30
2019-06-01T01:19:32.138Z,88.40
2019-06-01T01:22:03.558Z,88.40
2019-06-01T01:24:36.787Z,88.40
2019-06-01T01:27:08.168Z,88.40
2019-06-01T01:29:39.540Z,88.30
2019-06-01T01:32:10.790Z,88.30
2019-06-01T01:34:42.460Z,88.20
2019-06-01T01:37:13.839Z,88.30
2019-06-01T01:39:47.926Z,88.30
2019-06-01T01:42:19.497Z,88.40
2019-06-01T01:44:52.443Z,88.50
2019-06-01T01:47:24.054Z,88.50
2019-06-01T01:49:56.107Z,88.60
2019-06-01T01:52:27.594Z,88.70
2019-06-01T01:54:58.966Z,88.70
2019-06-01T01:57:30.397Z,88.80
2019-06-01T02:00:01.872Z,88.80
2019-06-01T02:02:33.328Z,88.80
2019-06-01T02:05:04.724Z,88.90
2019-06-01T02:07:36.625Z,88.80
2019-06-01T02:10:10.057Z,88.80
2019-06-01T02:12:41.350Z,88.80
2019-06-01T02:15:12.642Z,88.90
2019-06-01T02:17:43.961Z,88.90
2019-06-01T02:20:15.265Z,88.90
2019-06-01T02:22:46.576Z,89.10
2019-06-01T02:25:18.108Z,89.20
2019-06-01T02:27:49.417Z,89.30
2019-06-01T02:30:24.196Z,89.50
2019-06-01T02:32:56.317Z,89.50
2019-06-01T02:35:28.299Z,89.80
2019-06-01T02:38:00.675Z,89.90
2019-06-01T02:40:32.125Z,89.90
2019-06-01T02:43:06.479Z,89.90
2019-06-01T02:45:38.833Z,89.90
2019-06-01T02:48:10.200Z,90.00
2019-06-01T02:50:41.569Z,90.00
2019-06-01T02:53:12.895Z,90.00
2019-06-01T02:55:44.235Z,90.00
2019-06-01T02:58:15.573Z,90.10
2019-06-01T03:01:26.836Z,90.00
2019-06-01T03:03:59.514Z,90.10
2019-06-01T03:06:33.406Z,90.10
2019-06-01T03:09:09.001Z,90.20
2019-06-01T03:11:42.322Z,90.20
2019-06-01T03:14:14.060Z,90.30
2019-06-01T03:16:47.019Z,90.40
2019-06-01T03:19:20.692Z,90.50
2019-06-01T03:21:54.278Z,90.60
2019-06-01T03:24:26.221Z,90.70
2019-06-01T03:26:58.326Z,90.70
2019-06-01T03:29:33.186Z,90.80
2019-06-01T03:32:23.786Z,90.70
2019-06-01T03:34:37.999Z,90.80
2019-06-01T03:37:09.376Z,91.10
2019-06-01T03:39:41.031Z,90.60
2019-06-01T03:42:12.747Z,90.30
2019-06-01T03:44:44.070Z,89.70
2019-06-01T03:47:15.467Z,88.20
2019-06-01T03:49:47.636Z,86.90
2019-06-01T03:52:19.028Z,85.80
2019-06-01T03:54:50.410Z,84.90
2019-06-01T03:57:21.752Z,84.20
2019-06-01T03:59:53.092Z,83.60
2019-06-01T04:02:32.678Z,82.80
2019-06-01T04:04:57.406Z,81.90
2019-06-01T04:07:29.100Z,80.80
2019-06-01T04:10:01.714Z,80.10
2019-06-01T04:12:34.958Z,79.40
2019-06-01T04:15:10.188Z,78.50
2019-06-01T04:17:40.057Z,77.70
2019-06-01T04:20:12.333Z,76.90
2019-06-01T04:22:43.678Z,76.30
2019-06-01T04:25:15.205Z,75.70
2019-06-01T04:27:48.120Z,75.40
2019-06-01T04:30:24.607Z,75.10
2019-06-01T04:32:56.350Z,74.40
2019-06-01T04:35:28.642Z,73.40
2019-06-01T04:38:00.118Z,72.70
2019-06-01T04:40:31.670Z,72.00
2019-06-01T04:43:03.710Z,71.20
2019-06-01T04:45:35.922Z,70.40
2019-06-01T04:48:08.342Z,69.90
2019-06-01T04:50:40.053Z,69.30
2019-06-01T04:53:12.191Z,68.30
2019-06-01T04:55:44.436Z,67.50
2019-06-01T04:58:15.727Z,66.60
2019-06-01T05:00:48.167Z,65.70
2019-06-01T05:03:19.535Z,64.70
2019-06-01T05:05:50.872Z,63.90
2019-06-01T05:08:22.297Z,63.20
2019-06-01T05:10:53.907Z,63.30
2019-06-01T05:13:25.262Z,62.00
2019-06-01T05:15:56.657Z,61.80
2019-06-01T05:18:28.152Z,62.20
2019-06-01T05:20:59.478Z,62.60
2019-06-01T05:23:30.916Z,63.00
2019-06-01T05:26:02.471Z,63.70
2019-06-01T05:28:33.783Z,64.50
2019-06-01T05:31:05.230Z,65.50
2019-06-01T05:33:37.764Z,66.20
2019-06-01T05:36:10.037Z,66.80
2019-06-01T05:38:41.554Z,66.90
2019-06-01T05:41:13.240Z,66.60
2019-06-01T05:43:46.412Z,66.40
2019-06-01T05:46:18.119Z,66.10
2019-06-01T05:48:50.218Z,66.00
2019-06-01T05:51:22.969Z,65.90
2019-06-01T05:53:57.105Z,65.50
2019-06-01T05:56:29.070Z,65.20
2019-06-01T05:59:00.476Z,65.10
2019-06-01T06:01:32.167Z,65.20
2019-06-01T06:04:03.571Z,65.10
2019-06-01T06:06:34.903Z,65.40
2019-06-01T06:09:08.439Z,65.70
2019-06-01T06:11:45.203Z,66.10
2019-06-01T06:14:17.611Z,66.50
2019-06-01T06:16:49.229Z,66.80
2019-06-01T06:19:22.234Z,67.00
2019-06-01T06:21:53.629Z,67.00
2019-06-01T06:24:24.917Z,67.40
2019-06-01T06:26:57.689Z,67.70
2019-06-01T06:29:29.009Z,68.30
2019-06-01T06:32:00.314Z,68.80
2019-06-01T06:34:31.839Z,69.30
2019-06-01T06:37:03.642Z,69.90
2019-06-01T06:39:35.753Z,69.90
2019-06-01T06:42:07.269Z,70.10
2019-06-01T06:44:56.206Z,70.50
2019-06-01T06:47:27.670Z,70.50
2019-06-01T06:49:58.914Z,70.20
2019-06-01T06:52:34.102Z,70.10
2019-06-01T06:55:11.066Z,69.90
2019-06-01T06:57:42.648Z,69.00
2019-06-01T07:00:14.123Z,68.80
2019-06-01T07:02:45.650Z,68.20
2019-06-01T07:05:17.237Z,68.00
2019-06-01T07:07:48.909Z,67.70
2019-06-01T07:10:24.256Z,67.50
2019-06-01T07:12:58.642Z,67.40
2019-06-01T07:15:30.186Z,67.30
2019-06-01T07:18:01.640Z,67.00
2019-06-01T07:20:34.448Z,67.00
2019-06-01T07:23:05.775Z,67.30
2019-06-01T07:25:37.089Z,67.20
2019-06-01T07:28:08.501Z,67.30
2019-06-01T07:30:49.590Z,67.00
2019-06-01T07:33:12.918Z,66.50
2019-06-01T07:35:44.282Z,66.20
2019-06-01T07:38:15.539Z,66.10
2019-06-01T07:40:47.668Z,66.00
2019-06-01T07:43:19.117Z,65.90
2019-06-01T07:45:50.578Z,65.20
2019-06-01T07:48:24.876Z,64.90
2019-06-01T07:50:56.789Z,64.60
2019-06-01T07:53:29.408Z,64.30
2019-06-01T07:56:17.687Z,63.90
2019-06-01T07:58:50.624Z,63.80
2019-06-01T08:01:24.562Z,64.00
2019-06-01T08:03:54.901Z,63.40
2019-06-01T08:06:33.671Z,62.70
2019-06-01T08:09:06.888Z,63.10
2019-06-01T08:11:38.691Z,61.70
2019-06-01T08:14:10.264Z,61.00
2019-06-01T08:16:41.624Z,60.40
2019-06-01T08:19:12.956Z,59.40
2019-06-01T08:21:44.308Z,58.70
2019-06-01T08:24:15.927Z,57.80
2019-06-01T08:26:49.754Z,57.60
2019-06-01T08:29:22.503Z,57.60
2019-06-01T08:31:55.902Z,57.40
2019-06-01T08:34:27.451Z,57.30
2019-06-01T08:36:58.836Z,56.90
2019-06-01T08:39:31.395Z,56.70
2019-06-01T08:42:03.018Z,56.00
2019-06-01T08:44:34.507Z,55.80
2019-06-01T08:47:05.872Z,55.90
2019-06-01T08:49:37.512Z,55.90
2019-06-01T08:52:09.834Z,55.30
2019-06-01T08:54:44.138Z,54.60
2019-06-01T08:57:18.323Z,53.60
2019-06-01T08:59:49.587Z,52.20
2019-06-01T09:02:20.930Z,51.40
2019-06-01T09:04:52.550Z,51.00
2019-06-01T09:07:25.186Z,50.80
2019-06-01T09:09:56.545Z,50.40
2019-06-01T09:12:33.306Z,50.20
2019-06-01T09:15:05.948Z,49.80
2019-06-01T09:17:38.329Z,49.30
2019-06-01T09:20:09.986Z,48.60
2019-06-01T09:22:41.377Z,48.50
2019-06-01T09:25:13.993Z,48.50
2019-06-01T09:27:47.116Z,48.60
2019-06-01T09:30:21.036Z,48.80
2019-06-01T09:32:55.527Z,48.90
2019-06-01T09:35:51.375Z,48.60
2019-06-01T09:38:01.895Z,48.60
2019-06-01T09:40:35.343Z,48.60
2019-06-01T09:43:06.715Z,48.00
2019-06-01T09:45:39.311Z,47.50
2019-06-01T09:48:10.671Z,47.80
2019-06-01T09:50:42.219Z,47.90
2019-06-01T09:53:17.243Z,48.30
2019-06-01T09:55:48.634Z,48.40
2019-06-01T09:58:19.865Z,48.00
2019-06-01T10:00:51.183Z,46.60
2019-06-01T10:03:23.754Z,47.20
2019-06-01T10:06:01.885Z,47.80
2019-06-01T10:08:29.309Z,46.80
2019-06-01T10:11:01.900Z,46.50
2019-06-01T10:13:36.273Z,46.00
2019-06-01T10:16:07.919Z,45.50
2019-06-01T10:18:41.366Z,45.00
2019-06-01T10:21:12.764Z,45.10
2019-06-01T10:23:48.808Z,45.00
2019-06-01T10:26:17.983Z,45.20
2019-06-01T10:28:49.334Z,45.40
2019-06-01T10:31:20.598Z,45.40
2019-06-01T10:33:52.099Z,45.40
2019-06-01T10:36:23.845Z,45.30
2019-06-01T10:38:55.130Z,45.30
2019-06-01T10:41:26.541Z,45.10
2019-06-01T10:44:01.119Z,44.50
2019-06-01T10:46:33.800Z,44.50
2019-06-01T10:49:05.241Z,44.00
2019-06-01T10:51:36.645Z,43.70
2019-06-01T10:54:08.089Z,44.00
2019-06-01T10:56:40.641Z,43.60
2019-06-01T10:59:12.190Z,43.50
2019-06-01T11:01:45.256Z,43.40
2019-06-01T11:04:16.663Z,43.40
2019-06-01T11:06:49.726Z,43.60
2019-06-01T11:09:21.521Z,43.50
2019-06-01T11:11:52.964Z,43.00
2019-06-01T11:14:24.366Z,42.20
2019-06-01T11:16:56.867Z,42.70
2019-06-01T11:19:28.537Z,42.20
2019-06-01T11:21:59.825Z,43.10
2019-06-01T11:24:31.758Z,43.50
2019-06-01T11:27:03.057Z,43.30
2019-06-01T11:29:39.997Z,43.40
2019-06-01T11:32:07.706Z,43.40
2019-06-01T11:34:40.192Z,43.60
2019-06-01T11:37:15.175Z,43.00
2019-06-01T11:39:44.837Z,43.70
2019-06-01T11:42:19.937Z,43.80
2019-06-01T11:44:52.502Z,43.90
2019-06-01T11:47:24.079Z,44.00
2019-06-01T11:49:55.387Z,44.10
2019-06-01T11:52:27.130Z,44.50
2019-06-01T11:54:58.500Z,44.80
2019-06-01T11:57:29.892Z,45.10
2019-06-01T12:00:01.499Z,46.10
2019-06-01T12:02:37.480Z,46.10
2019-06-01T12:05:09.322Z,46.40
2019-06-01T12:07:43.816Z,46.50
2019-06-01T12:10:15.269Z,46.60
2019-06-01T12:12:46.597Z,47.10
2019-06-01T12:15:20.551Z,47.50
2019-06-01T12:17:52.049Z,47.70
2019-06-01T12:20:24.171Z,48.10
2019-06-01T12:22:55.579Z,48.00
2019-06-01T12:25:27.026Z,48.10
2019-06-01T12:27:58.359Z,48.00
2019-06-01T12:30:29.787Z,48.10
2019-06-01T12:33:01.273Z,48.30
2019-06-01T12:35:32.702Z,48.30
2019-06-01T12:38:06.824Z,48.40
2019-06-01T12:40:36.945Z,48.20
2019-06-01T12:43:08.299Z,48.80
2019-06-01T12:45:39.732Z,48.90
2019-06-01T12:48:11.035Z,49.20
2019-06-01T12:50:42.437Z,49.60
2019-06-01T12:53:13.808Z,49.20
2019-06-01T12:55:45.261Z,49.60
2019-06-01T12:58:18.541Z,49.60
2019-06-01T13:00:54.690Z,49.40
2019-06-01T13:03:27.160Z,49.10
2019-06-01T13:05:58.672Z,48.90
2019-06-01T13:08:31.695Z,48.60
2019-06-01T13:11:03.186Z,48.70
2019-06-01T13:13:36.326Z,48.80
2019-06-01T13:16:08.547Z,48.70
2019-06-01T13:18:41.176Z,48.60
2019-06-01T13:21:20.487Z,48.40
2019-06-01T13:23:53.440Z,48.50
2019-06-01T13:26:24.995Z,48.20
2019-06-01T13:28:56.588Z,47.40
2019-06-01T13:31:28.527Z,47.60
2019-06-01T13:34:00.022Z,47.80
2019-06-01T13:36:32.224Z,47.30
2019-06-01T13:39:04.818Z,47.20
2019-06-01T13:41:37.255Z,47.20
2019-06-01T13:44:08.786Z,46.50
2019-06-01T13:46:40.267Z,45.90
2019-06-01T13:49:11.601Z,46.10
2019-06-01T13:51:46.009Z,46.20
2019-06-01T13:54:17.765Z,46.40
2019-06-01T13:56:55.163Z,46.30
2019-06-01T13:59:37.449Z,46.60
2019-06-01T14:02:16.479Z,46.80
2019-06-01T14:04:48.191Z,46.90
2019-06-01T14:07:19.586Z,46.90
2019-06-01T14:09:52.133Z,46.50
2019-06-01T14:12:24.101Z,46.70
2019-06-01T14:14:55.990Z,46.90
2019-06-01T14:17:28.601Z,46.80
2019-06-01T14:19:59.823Z,46.80
2019-06-01T14:22:31.741Z,46.70
2019-06-01T14:25:12.650Z,46.80
2019-06-01T14:27:38.241Z,47.20
2019-06-01T14:30:23.877Z,47.30
2019-06-01T14:32:52.913Z,47.40
2019-06-01T14:35:25.813Z,47.50
2019-06-01T14:37:57.163Z,47.80
2019-06-01T14:40:28.747Z,48.20
2019-06-01T14:43:03.218Z,48.30
2019-06-01T14:45:34.979Z,48.50
2019-06-01T14:48:06.266Z,48.70
2019-06-01T14:50:37.645Z,48.50
2019-06-01T14:53:08.946Z,48.40
2019-06-01T14:55:40.643Z,48.80
2019-06-01T14:58:12.033Z,48.80
2019-06-01T15:00:43.689Z,48.90
2019-06-01T15:03:16.132Z,49.10
2019-06-01T15:05:59.211Z,49.10
2019-06-01T15:08:31.034Z,49.20
2019-06-01T15:11:02.567Z,49.10
2019-06-01T15:13:35.337Z,49.20
2019-06-01T15:16:06.769Z,49.20
2019-06-01T15:18:38.362Z,49.40
2019-06-01T15:21:09.822Z,49.70
2019-06-01T15:23:41.589Z,49.90
2019-06-01T15:26:14.880Z,49.70
2019-06-01T15:28:45.920Z,49.20
2019-06-01T15:31:17.319Z,49.40
2019-06-01T15:33:48.636Z,49.90
2019-06-01T15:36:21.558Z,50.40
2019-06-01T15:38:55.891Z,50.70
2019-06-01T15:41:27.221Z,51.00
2019-06-01T15:43:59.157Z,51.50
2019-06-01T15:46:30.466Z,51.80
2019-06-01T15:49:02.057Z,52.10
2019-06-01T15:51:33.635Z,52.20
2019-06-01T15:54:06.089Z,52.50
2019-06-01T15:56:37.419Z,52.70
2019-06-01T15:59:12.606Z,52.80
2019-06-01T16:01:45.059Z,53.10
2019-06-01T16:04:16.462Z,53.20
2019-06-01T16:06:47.780Z,53.50
2019-06-01T16:09:19.983Z,53.70
2019-06-01T16:11:55.538Z,53.90
2019-06-01T16:14:29.558Z,54.40
2019-06-01T16:17:02.888Z,54.50
2019-06-01T16:19:37.479Z,54.70
2019-06-01T16:22:09.661Z,54.90
2019-06-01T16:24:41.081Z,55.00
2019-06-01T16:27:12.502Z,55.10
2019-06-01T16:29:43.765Z,55.40
2019-06-01T16:32:15.135Z,55.50
2019-06-01T16:34:46.452Z,55.60
2019-06-01T16:37:22.875Z,55.80
2019-06-01T16:39:59.740Z,55.80
2019-06-01T16:42:29.014Z,56.70
2019-06-01T16:45:03.545Z,56.10
2019-06-01T16:47:36.479Z,56.30
2019-06-01T16:50:08.717Z,57.00
2019-06-01T16:52:40.222Z,56.40
2019-06-01T16:55:12.567Z,56.70
2019-06-01T16:57:46.106Z,56.70
2019-06-01T17:00:18.381Z,56.90
2019-06-01T17:02:49.647Z,57.20
2019-06-01T17:05:20.958Z,57.20
2019-06-01T17:07:54.914Z,57.30
2019-06-01T17:10:28.080Z,57.40
2019-06-01T17:13:00.254Z,57.50
2019-06-01T17:15:32.363Z,57.80
2019-06-01T17:18:08.218Z,57.80
2019-06-01T17:20:49.774Z,58.10
2019-06-01T17:23:26.922Z,58.10
2019-06-01T17:25:54.381Z,58.20
2019-06-01T17:28:25.790Z,58.40
2019-06-01T17:31:02.304Z,58.60
2019-06-01T17:33:33.924Z,58.70
2019-06-01T17:36:07.283Z,58.90
2019-06-01T17:38:38.626Z,59.10
2019-06-01T17:41:10.203Z,59.10
2019-06-01T17:43:41.449Z,59.30
2019-06-01T17:46:14.594Z,59.30
2019-06-01T17:48:47.082Z,59.60
2019-06-01T17:51:18.573Z,59.80
2019-06-01T17:53:53.144Z,59.90
2019-06-01T17:56:22.971Z,60.00
2019-06-01T17:58:55.413Z,60.10
2019-06-01T18:01:26.875Z,60.30
2019-06-01T18:03:58.537Z,60.40
2019-06-01T18:06:30.765Z,60.60
2019-06-01T18:09:08.036Z,60.70
2019-06-01T18:11:41.080Z,60.60
2019-06-01T18:14:12.611Z,60.60
2019-06-01T18:16:43.909Z,60.80
2019-06-01T18:19:16.734Z,60.90
2019-06-01T18:21:49.336Z,61.00
2019-06-01T18:24:21.703Z,61.10
2019-06-01T18:26:54.939Z,61.40
2019-06-01T18:29:30.281Z,61.50
2019-06-01T18:32:03.765Z,61.90
2019-06-01T18:34:36.561Z,62.20
2019-06-01T18:37:09.218Z,62.70
2019-06-01T18:39:40.968Z,63.00
2019-06-01T18:42:12.824Z,63.40
2019-06-01T18:44:44.124Z,63.70
2019-06-01T18:47:31.465Z,64.30
2019-06-01T18:49:50.077Z,64.60
2019-06-01T18:52:21.976Z,65.10
2019-06-01T18:54:53.378Z,65.50
2019-06-01T18:57:26.354Z,65.80
2019-06-01T18:59:57.751Z,66.20
2019-06-01T19:02:29.318Z,66.50
2019-06-01T19:05:00.690Z,67.00
2019-06-01T19:07:32.280Z,67.50
2019-06-01T19:10:03.806Z,68.00
2019-06-01T19:12:35.571Z,68.40
2019-06-01T19:15:13.818Z,69.00
2019-06-01T19:17:40.868Z,69.50
2019-06-01T19:20:13.130Z,69.90
2019-06-01T19:22:45.425Z,70.20
2019-06-01T19:25:19.611Z,70.60
2019-06-01T19:27:52.618Z,71.00
2019-06-01T19:30:40.886Z,71.10
2019-06-01T19:33:15.536Z,71.50
2019-06-01T19:35:45.456Z,71.80
2019-06-01T19:38:18.073Z,72.10
2019-06-01T19:40:50.220Z,72.50
2019-06-01T19:43:22.089Z,72.90
2019-06-01T19:45:53.420Z,73.10
2019-06-01T19:48:25.789Z,73.50
2019-06-01T19:50:57.111Z,73.70
2019-06-01T19:53:28.382Z,74.00
2019-06-01T19:55:59.855Z,74.10
2019-06-01T19:58:31.362Z,74.20
2019-06-01T20:01:02.957Z,74.40
2019-06-01T20:03:36.450Z,75.50
2019-06-01T20:06:07.807Z,74.80
2019-06-01T20:08:39.102Z,75.00
2019-06-01T20:11:13.135Z,75.30
2019-06-01T20:13:46.245Z,75.50
2019-06-01T20:16:19.997Z,75.70
2019-06-01T20:18:50.827Z,75.80
2019-06-01T20:21:22.293Z,76.00
2019-06-01T20:23:53.818Z,76.20
2019-06-01T20:26:38.949Z,76.40
2019-06-01T20:28:58.341Z,76.50
2019-06-01T20:31:29.959Z,76.70
2019-06-01T20:34:01.434Z,76.70
2019-06-01T20:36:32.941Z,76.90
2019-06-01T20:39:06.228Z,77.10
2019-06-01T20:41:37.770Z,77.10
2019-06-01T20:44:09.486Z,77.30
2019-06-01T20:46:43.212Z,77.40
2019-06-01T20:49:14.577Z,77.60
2019-06-01T20:51:45.986Z,77.60
2019-06-01T20:54:18.958Z,77.80
2019-06-01T20:56:50.538Z,77.80
2019-06-01T20:59:23.484Z,78.00
2019-06-01T21:01:55.443Z,78.40
2019-06-01T21:04:26.872Z,78.80
2019-06-01T21:06:58.425Z,78.80
2019-06-01T21:09:30.070Z,79.00
2019-06-01T21:12:01.600Z,79.40
2019-06-01T21:14:33.165Z,79.60
2019-06-01T21:17:05.030Z,79.70
2019-06-01T21:19:36.418Z,79.80
2019-06-01T21:22:09.790Z,79.90
2019-06-01T21:24:42.190Z,80.00
2019-06-01T21:27:14.434Z,80.10
2019-06-01T21:29:51.440Z,80.60
2019-06-01T21:32:25.576Z,80.40
2019-06-01T21:34:59.047Z,80.60
2019-06-01T21:38:05.428Z,80.70
2019-06-01T21:40:51.432Z,80.80
2019-06-01T21:43:34.154Z,80.80
2019-06-01T21:46:52.724Z,80.90
2019-06-01T21:48:40.850Z,81.00
2019-06-01T21:51:15.651Z,81.20
2019-06-01T21:53:47.048Z,81.30
2019-06-01T21:56:22.231Z,81.20
2019-06-01T21:58:53.987Z,81.50
2019-06-01T22:01:26.865Z,81.70
2019-06-01T22:04:01.338Z,81.80
2019-06-01T22:06:35.377Z,81.90
2019-06-01T22:09:07.863Z,82.10
2019-06-01T22:11:39.255Z,81.90
2019-06-01T22:14:10.603Z,82.10
2019-06-01T22:16:44.772Z,82.30
2019-06-01T22:19:20.172Z,82.20
2019-06-01T22:21:51.721Z,82.30
2019-06-01T22:24:23.818Z,82.30
2019-06-01T22:26:55.776Z,82.50
2019-06-01T22:29:28.486Z,82.60
2019-06-01T22:32:07.743Z,82.80
2019-06-01T22:34:41.609Z,82.90
2019-06-01T22:37:13.529Z,83.10
2019-06-01T22:39:45.700Z,83.30
2019-06-01T22:42:17.613Z,83.50
2019-06-01T22:44:48.946Z,83.60
2019-06-01T22:47:20.492Z,83.70
2019-06-01T22:49:51.979Z,83.70
2019-06-01T22:52:23.318Z,83.70
2019-06-01T22:54:54.741Z,83.70
2019-06-01T22:57:26.542Z,83.70
2019-06-01T23:00:06.202Z,83.80
2019-06-01T23:02:38.183Z,83.70
2019-06-01T23:05:09.490Z,83.80
2019-06-01T23:07:42.878Z,84.10
2019-06-01T23:10:14.807Z,84.40
2019-06-01T23:12:48.641Z,84.50
2019-06-01T23:15:21.159Z,84.70
2019-06-01T23:17:53.037Z,84.70
2019-06-01T23:20:25.766Z,84.60
2019-06-01T23:22:57.196Z,84.60
2019-06-01T23:25:28.714Z,84.50
2019-06-01T23:28:00.834Z,85.30
2019-06-01T23:30:32.425Z,84.50
2019-06-01T23:33:04.117Z,84.50
2019-06-01T23:35:35.482Z,84.40
2019-06-01T23:38:06.796Z,84.40
2019-06-01T23:40:38.349Z,84.40
2019-06-01T23:43:11.843Z,84.40
2019-06-01T23:45:43.215Z,84.50
2019-06-01T23:48:14.540Z,84.40
2019-06-01T23:50:46.339Z,84.50
2019-06-01T23:53:17.779Z,84.60
2019-06-01T23:55:49.098Z,84.50
2019-06-01T23:58:20.431Z,84.50
